createdAt,value
2019-03-09T00:02:24.033Z,6.69
2019-03-09T00:04:57.933Z,6.69
2019-03-09T00:07:31.952Z,6.75
2019-03-09T00:10:08.702Z,6.78
2019-03-09T00:12:42.528Z,6.93
2019-03-09T00:15:16.300Z,6.91
2019-03-09T00:17:50.233Z,6.95
2019-03-09T00:20:24.975Z,6.98
2019-03-09T00:23:28.356Z,6.91
2019-03-09T00:26:25.808Z,6.91
2019-03-09T00:29:06.902Z,6.92
2019-03-09T00:31:51.323Z,7.02
2019-03-09T00:34:25.223Z,6.99
2019-03-09T00:36:59.384Z,7.07
2019-03-09T00:39:34.227Z,7.00
2019-03-09T00:42:08.096Z,6.97
2019-03-09T00:44:43.339Z,7.01
2019-03-09T00:47:18.783Z,6.99
2019-03-09T00:49:54.431Z,7.02
2019-03-09T00:52:29.914Z,7.06
2019-03-09T00:55:03.793Z,7.04
2019-03-09T00:57:38.617Z,7.08
2019-03-09T01:00:18.572Z,7.10
2019-03-09T01:02:52.260Z,7.03
2019-03-09T01:05:25.976Z,7.09
2019-03-09T01:07:59.995Z,7.04
2019-03-09T01:10:34.824Z,7.04
2019-03-09T01:13:10.163Z,7.02
2019-03-09T01:15:45.301Z,7.05
2019-03-09T01:18:18.946Z,7.06
2019-03-09T01:20:52.745Z,7.11
2019-03-09T01:23:26.355Z,7.05
2019-03-09T01:26:01.925Z,6.98
2019-03-09T01:28:35.990Z,7.07
2019-03-09T01:31:10.194Z,7.01
2019-03-09T01:33:45.132Z,7.11
2019-03-09T01:36:19.243Z,7.05
2019-03-09T01:38:53.988Z,7.08
2019-03-09T01:41:29.633Z,7.04
2019-03-09T01:44:05.169Z,7.06
2019-03-09T01:46:39.599Z,7.01
2019-03-09T01:49:13.325Z,7.03
2019-03-09T01:51:47.363Z,7.01
2019-03-09T01:54:21.043Z,7.01
2019-03-09T01:56:54.911Z,7.00
2019-03-09T01:59:29.813Z,6.96
2019-03-09T02:02:03.458Z,6.99
2019-03-09T02:04:37.325Z,7.03
2019-03-09T02:07:12.854Z,7.10
2019-03-09T02:09:46.895Z,7.08
2019-03-09T02:12:22.789Z,7.09
2019-03-09T02:14:58.641Z,7.08
2019-03-09T02:17:32.324Z,7.07
2019-03-09T02:20:06.705Z,7.04
2019-03-09T02:22:41.766Z,7.08
2019-03-09T02:25:15.832Z,7.08
2019-03-09T02:27:50.857Z,7.02
2019-03-09T02:30:24.929Z,7.02
2019-03-09T02:32:58.974Z,7.00
2019-03-09T02:35:33.637Z,7.11
2019-03-09T02:38:26.489Z,7.07
2019-03-09T02:41:03.192Z,7.11
2019-03-09T02:43:36.915Z,7.08
2019-03-09T02:46:10.543Z,7.09
2019-03-09T02:48:44.435Z,7.13
2019-03-09T02:51:19.308Z,7.18
2019-03-09T02:53:53.363Z,7.25
2019-03-09T02:56:27.138Z,7.18
2019-03-09T02:59:01.414Z,7.16
2019-03-09T03:01:54.054Z,7.10
2019-03-09T03:04:27.861Z,6.99
2019-03-09T03:07:01.661Z,6.93
2019-03-09T03:09:35.541Z,6.98
2019-03-09T03:12:09.303Z,6.94
2019-03-09T03:14:44.145Z,6.92
2019-03-09T03:17:17.825Z,6.87
2019-03-09T03:19:52.261Z,6.85
2019-03-09T03:22:26.926Z,6.79
2019-03-09T03:25:01.718Z,6.71
2019-03-09T03:27:38.469Z,6.70
2019-03-09T03:30:12.690Z,6.70
2019-03-09T03:32:47.636Z,6.61
2019-03-09T03:35:21.373Z,6.67
2019-03-09T03:37:55.241Z,6.73
2019-03-09T03:40:28.947Z,6.68
2019-03-09T03:43:02.643Z,6.61
2019-03-09T03:45:36.409Z,6.69
2019-03-09T03:48:10.256Z,6.63
2019-03-09T03:50:43.899Z,6.69
2019-03-09T03:53:19.047Z,6.66
2019-03-09T03:55:54.969Z,6.70
2019-03-09T03:58:29.130Z,6.69
2019-03-09T04:01:02.993Z,6.64
2019-03-09T04:03:36.792Z,6.63
2019-03-09T04:06:10.958Z,6.69
2019-03-09T04:08:46.194Z,6.65
2019-03-09T04:11:20.426Z,6.68
2019-03-09T04:13:54.385Z,6.61
2019-03-09T04:16:28.279Z,6.65
2019-03-09T04:19:05.595Z,6.57
2019-03-09T04:21:41.154Z,6.55
2019-03-09T04:24:14.903Z,6.56
2019-03-09T04:26:48.912Z,6.56
2019-03-09T04:29:23.155Z,6.53
2019-03-09T04:31:57.387Z,6.54
2019-03-09T04:34:31.574Z,6.54
2019-03-09T04:37:05.388Z,6.46
2019-03-09T04:39:39.233Z,6.51
2019-03-09T04:42:15.623Z,6.49
2019-03-09T04:44:49.500Z,6.37
2019-03-09T04:47:24.699Z,6.43
2019-03-09T04:49:58.441Z,6.40
2019-03-09T04:52:33.370Z,6.39
2019-03-09T04:55:09.042Z,6.36
2019-03-09T04:57:43.226Z,6.33
2019-03-09T05:00:19.402Z,6.35
2019-03-09T05:02:54.845Z,6.32
2019-03-09T05:05:29.779Z,6.33
2019-03-09T05:08:15.486Z,6.30
2019-03-09T05:11:10.820Z,6.30
2019-03-09T05:13:57.253Z,6.27
2019-03-09T05:16:31.137Z,6.35
2019-03-09T05:19:06.306Z,6.34
2019-03-09T05:21:40.220Z,6.39
2019-03-09T05:24:14.288Z,6.46
2019-03-09T05:26:48.167Z,6.41
2019-03-09T05:29:22.161Z,6.44
2019-03-09T05:31:56.132Z,6.46
2019-03-09T05:34:32.786Z,6.53
2019-03-09T05:37:06.954Z,6.53
2019-03-09T05:39:42.191Z,6.53
2019-03-09T05:42:17.607Z,6.61
2019-03-09T05:44:52.998Z,6.58
2019-03-09T05:47:27.138Z,6.65
2019-03-09T05:50:00.799Z,6.63
2019-03-09T05:52:38.686Z,6.71
2019-03-09T05:55:21.302Z,6.64
2019-03-09T05:57:55.353Z,6.77
2019-03-09T06:00:29.371Z,6.83
2019-03-09T06:03:03.806Z,6.82
2019-03-09T06:06:00.793Z,6.85
2019-03-09T06:08:37.758Z,6.87
2019-03-09T06:11:13.283Z,6.90
2019-03-09T06:13:47.128Z,6.93
2019-03-09T06:16:20.936Z,6.94
2019-03-09T06:18:54.853Z,7.00
2019-03-09T06:21:30.195Z,6.95
2019-03-09T06:24:04.152Z,7.05
2019-03-09T06:26:39.357Z,7.10
2019-03-09T06:29:13.423Z,7.23
2019-03-09T06:32:51.939Z,7.17
2019-03-09T06:35:29.330Z,7.34
2019-03-09T06:38:34.044Z,7.51
2019-03-09T06:41:09.769Z,7.60
2019-03-09T06:43:43.500Z,7.68
2019-03-09T06:46:18.678Z,7.80
2019-03-09T06:48:52.349Z,9.11
2019-03-09T06:51:26.045Z,8.46
2019-03-09T06:54:02.007Z,8.41
2019-03-09T06:56:37.141Z,8.19
2019-03-09T06:59:12.587Z,8.14
2019-03-09T07:01:47.405Z,8.07
2019-03-09T07:04:23.578Z,8.24
2019-03-09T07:06:57.315Z,8.69
2019-03-09T07:09:33.056Z,8.50
2019-03-09T07:12:09.569Z,8.75
2019-03-09T07:15:21.921Z,8.58
2019-03-09T07:18:01.132Z,8.48
2019-03-09T07:20:36.671Z,8.38
2019-03-09T07:23:12.055Z,8.38
2019-03-09T07:25:46.309Z,8.52
2019-03-09T07:28:20.412Z,8.56
2019-03-09T07:30:55.695Z,9.74
2019-03-09T07:33:29.568Z,9.79
2019-03-09T07:36:03.881Z,10.62
2019-03-09T07:38:37.736Z,10.12
2019-03-09T07:41:11.369Z,10.66
2019-03-09T07:43:45.149Z,11.67
2019-03-09T07:46:20.283Z,11.17
2019-03-09T07:48:54.007Z,10.66
2019-03-09T07:51:28.921Z,10.26
2019-03-09T07:54:02.983Z,10.75
2019-03-09T07:56:37.655Z,11.62
2019-03-09T07:59:11.863Z,12.80
2019-03-09T08:01:47.664Z,13.30
2019-03-09T08:04:22.460Z,13.60
2019-03-09T08:06:56.230Z,13.56
2019-03-09T08:09:32.633Z,14.02
2019-03-09T08:12:06.278Z,13.44
2019-03-09T08:14:40.021Z,12.38
2019-03-09T08:17:15.233Z,11.87
2019-03-09T08:19:50.532Z,11.87
2019-03-09T08:22:24.771Z,12.29
2019-03-09T08:24:58.659Z,12.85
2019-03-09T08:27:34.316Z,11.74
2019-03-09T08:30:11.773Z,12.33
2019-03-09T08:32:46.537Z,11.19
2019-03-09T08:35:21.667Z,11.37
2019-03-09T08:37:55.478Z,10.74
2019-03-09T08:40:30.493Z,10.42
2019-03-09T08:43:04.213Z,10.21
2019-03-09T08:45:38.117Z,9.78
2019-03-09T08:48:13.805Z,9.79
2019-03-09T08:50:49.439Z,9.62
2019-03-09T08:53:23.507Z,9.48
2019-03-09T08:55:59.494Z,9.53
2019-03-09T08:58:33.385Z,9.56
2019-03-09T09:01:07.301Z,9.55
2019-03-09T09:03:42.198Z,9.57
2019-03-09T09:06:16.014Z,9.61
2019-03-09T09:08:49.868Z,9.58
2019-03-09T09:11:23.500Z,9.50
2019-03-09T09:13:59.052Z,9.57
2019-03-09T09:16:34.532Z,9.54
2019-03-09T09:19:08.872Z,9.49
2019-03-09T09:21:42.843Z,9.45
2019-03-09T09:24:16.580Z,9.47
2019-03-09T09:26:50.776Z,9.48
2019-03-09T09:29:26.157Z,9.58
2019-03-09T09:32:00.906Z,9.73
2019-03-09T09:34:35.868Z,9.63
2019-03-09T09:37:10.634Z,9.59
2019-03-09T09:39:47.680Z,9.68
2019-03-09T09:42:21.611Z,9.69
2019-03-09T09:44:55.438Z,9.90
2019-03-09T09:47:30.730Z,10.38
2019-03-09T09:50:04.789Z,10.54
2019-03-09T09:52:40.391Z,10.45
2019-03-09T09:55:16.308Z,10.25
2019-03-09T09:57:50.316Z,10.21
2019-03-09T10:00:29.704Z,10.24
2019-03-09T10:03:03.930Z,10.16
2019-03-09T10:05:37.899Z,10.09
2019-03-09T10:08:11.647Z,10.41
2019-03-09T10:10:45.580Z,10.47
2019-03-09T10:13:20.495Z,10.77
2019-03-09T10:15:54.191Z,10.98
2019-03-09T10:18:28.059Z,10.99
2019-03-09T10:21:02.141Z,10.85
2019-03-09T10:23:36.035Z,10.66
2019-03-09T10:26:10.915Z,10.69
2019-03-09T10:28:45.117Z,10.58
2019-03-09T10:31:20.481Z,10.54
2019-03-09T10:33:54.245Z,10.53
2019-03-09T10:36:28.158Z,10.71
2019-03-09T10:39:05.105Z,10.65
2019-03-09T10:41:39.105Z,10.71
2019-03-09T10:44:12.899Z,10.96
2019-03-09T10:46:46.650Z,10.97
2019-03-09T10:49:22.151Z,10.87
2019-03-09T10:51:56.163Z,11.04
2019-03-09T10:54:36.008Z,11.50
2019-03-09T10:57:08.549Z,11.69
2019-03-09T10:59:42.734Z,11.60
2019-03-09T11:02:17.470Z,11.40
2019-03-09T11:04:52.726Z,11.27
2019-03-09T11:07:27.669Z,11.15
2019-03-09T11:10:01.453Z,11.18
2019-03-09T11:12:35.156Z,11.00
2019-03-09T11:15:08.879Z,11.09
2019-03-09T11:17:42.633Z,11.11
2019-03-09T11:20:16.694Z,11.58
2019-03-09T11:22:52.343Z,11.87
2019-03-09T11:25:25.995Z,12.08
2019-03-09T11:28:12.901Z,12.10
2019-03-09T11:30:47.613Z,12.24
2019-03-09T11:33:21.802Z,12.57
2019-03-09T11:35:56.953Z,12.59
2019-03-09T11:38:31.106Z,12.70
2019-03-09T11:41:04.962Z,12.60
2019-03-09T11:43:38.791Z,12.45
2019-03-09T11:46:12.855Z,12.44
2019-03-09T11:48:46.483Z,12.57
2019-03-09T11:51:20.279Z,12.80
2019-03-09T11:53:54.474Z,13.11
2019-03-09T11:56:28.779Z,13.34
2019-03-09T11:59:04.627Z,13.52
2019-03-09T12:01:39.722Z,13.59
2019-03-09T12:04:14.849Z,13.56
2019-03-09T12:06:50.561Z,13.03
2019-03-09T12:09:24.364Z,13.22
2019-03-09T12:12:05.992Z,13.53
2019-03-09T12:14:40.512Z,13.62
2019-03-09T12:17:14.357Z,13.50
2019-03-09T12:19:48.364Z,13.50
2019-03-09T12:22:24.773Z,13.59
2019-03-09T12:24:58.784Z,13.69
2019-03-09T12:27:34.342Z,13.48
2019-03-09T12:30:10.676Z,13.68
2019-03-09T12:32:44.567Z,13.78
2019-03-09T12:35:18.592Z,13.35
2019-03-09T12:37:53.067Z,13.18
2019-03-09T12:40:27.023Z,13.11
2019-03-09T12:43:01.001Z,13.21
2019-03-09T12:45:34.974Z,13.45
2019-03-09T12:48:09.094Z,13.33
2019-03-09T12:50:44.329Z,13.12
2019-03-09T12:53:19.582Z,13.01
2019-03-09T12:55:54.531Z,12.91
2019-03-09T12:58:28.297Z,12.80
2019-03-09T13:01:02.363Z,12.72
2019-03-09T13:03:37.747Z,12.48
2019-03-09T13:06:12.044Z,12.48
2019-03-09T13:08:45.990Z,12.24
2019-03-09T13:11:19.642Z,12.06
2019-03-09T13:13:55.212Z,12.07
2019-03-09T13:16:28.955Z,12.18
2019-03-09T13:19:02.945Z,12.26
2019-03-09T13:21:38.624Z,12.08
2019-03-09T13:24:12.519Z,12.00
2019-03-09T13:26:47.163Z,12.17
2019-03-09T13:29:21.831Z,12.02
2019-03-09T13:31:55.794Z,12.03
2019-03-09T13:34:31.398Z,12.09
2019-03-09T13:37:05.486Z,12.00
2019-03-09T13:39:39.733Z,11.97
2019-03-09T13:42:14.843Z,12.15
2019-03-09T13:44:49.066Z,12.01
2019-03-09T13:47:22.939Z,11.89
2019-03-09T13:49:58.554Z,11.81
2019-03-09T13:52:34.251Z,11.66
2019-03-09T13:55:09.585Z,11.51
2019-03-09T13:57:44.684Z,11.31
2019-03-09T14:00:18.982Z,11.14
2019-03-09T14:02:52.788Z,10.55
2019-03-09T14:05:26.888Z,10.02
2019-03-09T14:08:00.811Z,9.58
2019-03-09T14:10:34.850Z,9.32
2019-03-09T14:13:09.104Z,9.01
2019-03-09T14:15:43.880Z,9.02
2019-03-09T14:18:22.789Z,8.93
2019-03-09T14:20:56.716Z,8.87
2019-03-09T14:23:30.659Z,8.67
2019-03-09T14:26:04.449Z,8.72
2019-03-09T14:28:38.202Z,9.01
2019-03-09T14:31:11.861Z,9.16
2019-03-09T14:33:47.333Z,9.07
2019-03-09T14:36:22.824Z,8.95
2019-03-09T14:38:56.739Z,8.96
2019-03-09T14:41:32.043Z,9.04
2019-03-09T14:44:05.791Z,8.98
2019-03-09T14:46:39.973Z,8.98
2019-03-09T14:49:13.970Z,9.06
2019-03-09T14:51:47.610Z,8.96
2019-03-09T14:54:21.396Z,8.97
2019-03-09T14:56:55.577Z,8.86
2019-03-09T14:59:29.417Z,8.87
2019-03-09T15:02:04.929Z,8.72
2019-03-09T15:04:38.674Z,8.57
2019-03-09T15:07:12.707Z,8.72
2019-03-09T15:09:46.264Z,8.81
2019-03-09T15:12:19.881Z,8.75
2019-03-09T15:14:53.447Z,8.76
2019-03-09T15:17:27.233Z,8.90
2019-03-09T15:20:03.031Z,8.79
2019-03-09T15:22:37.371Z,8.66
2019-03-09T15:25:12.014Z,8.51
2019-03-09T15:27:46.101Z,8.56
2019-03-09T15:30:19.926Z,8.38
2019-03-09T15:32:53.682Z,8.40
2019-03-09T15:35:30.355Z,8.37
2019-03-09T15:38:04.113Z,8.43
2019-03-09T15:40:38.090Z,8.45
2019-03-09T15:43:11.998Z,8.27
2019-03-09T15:45:49.420Z,8.20
2019-03-09T15:48:24.803Z,8.26
2019-03-09T15:50:58.822Z,8.07
2019-03-09T15:53:34.320Z,8.03
2019-03-09T15:56:08.128Z,7.98
2019-03-09T15:58:41.804Z,7.87
2019-03-09T16:01:15.571Z,7.69
2019-03-09T16:03:50.060Z,7.61
2019-03-09T16:06:25.681Z,7.53
2019-03-09T16:09:01.085Z,7.57
2019-03-09T16:11:44.376Z,7.43
2019-03-09T16:14:10.318Z,7.48
2019-03-09T16:16:44.247Z,7.38
2019-03-09T16:19:19.584Z,7.46
2019-03-09T16:21:55.014Z,7.59
2019-03-09T16:24:29.230Z,7.57
2019-03-09T16:27:04.171Z,7.59
2019-03-09T16:29:40.519Z,7.56
2019-03-09T16:32:14.567Z,7.62
2019-03-09T16:34:49.277Z,7.61
2019-03-09T16:37:23.880Z,7.68
2019-03-09T16:39:58.271Z,7.66
2019-03-09T16:42:32.031Z,7.70
2019-03-09T16:45:05.977Z,7.67
2019-03-09T16:47:40.113Z,7.66
2019-03-09T16:50:15.709Z,7.71
2019-03-09T16:52:52.500Z,7.73
2019-03-09T16:55:27.470Z,7.76
2019-03-09T16:58:01.262Z,7.72
2019-03-09T17:00:34.856Z,7.73
2019-03-09T17:03:08.619Z,7.75
2019-03-09T17:05:42.250Z,7.84
2019-03-09T17:08:16.497Z,7.86
2019-03-09T17:10:50.652Z,7.84
2019-03-09T17:13:24.356Z,7.72
2019-03-09T17:15:58.378Z,7.68
2019-03-09T17:18:32.661Z,7.69
2019-03-09T17:21:07.420Z,7.68
2019-03-09T17:23:41.126Z,7.67
2019-03-09T17:26:15.070Z,7.63
2019-03-09T17:28:49.078Z,7.67
2019-03-09T17:31:23.799Z,7.61
2019-03-09T17:33:57.785Z,7.68
2019-03-09T17:36:31.502Z,7.64
2019-03-09T17:39:06.032Z,7.62
2019-03-09T17:41:41.107Z,7.51
2019-03-09T17:44:15.101Z,7.44
2019-03-09T17:46:49.085Z,7.31
2019-03-09T17:49:22.854Z,7.29
2019-03-09T17:51:57.182Z,7.25
2019-03-09T17:54:31.023Z,7.26
2019-03-09T17:57:04.932Z,7.31
2019-03-09T17:59:39.284Z,7.34
2019-03-09T18:02:12.932Z,7.28
2019-03-09T18:04:47.131Z,7.26
2019-03-09T18:07:21.374Z,7.23
2019-03-09T18:09:55.527Z,7.27
2019-03-09T18:12:29.522Z,7.22
2019-03-09T18:15:03.292Z,7.22
2019-03-09T18:17:37.034Z,7.17
2019-03-09T18:20:12.850Z,7.02
2019-03-09T18:22:46.808Z,7.03
2019-03-09T18:25:20.837Z,6.98
2019-03-09T18:27:55.005Z,6.86
2019-03-09T18:30:28.815Z,6.88
2019-03-09T18:33:03.878Z,6.90
2019-03-09T18:35:41.645Z,6.94
2019-03-09T18:38:18.038Z,6.87
2019-03-09T18:40:54.288Z,6.83
2019-03-09T18:43:28.253Z,6.75
2019-03-09T18:46:02.336Z,6.83
2019-03-09T18:48:36.555Z,6.71
2019-03-09T18:51:10.456Z,6.55
2019-03-09T18:53:44.172Z,6.48
2019-03-09T18:56:19.874Z,6.38
2019-03-09T18:58:56.184Z,6.30
2019-03-09T19:01:30.141Z,6.19
2019-03-09T19:04:05.648Z,6.16
2019-03-09T19:06:39.523Z,6.11
2019-03-09T19:09:17.838Z,5.97
2019-03-09T19:11:51.835Z,5.94
2019-03-09T19:14:25.755Z,5.92
2019-03-09T19:16:59.655Z,5.72
2019-03-09T19:19:34.253Z,5.77
2019-03-09T19:22:09.075Z,5.81
2019-03-09T19:24:43.776Z,5.72
2019-03-09T19:27:17.978Z,5.69
2019-03-09T19:29:51.687Z,5.79
2019-03-09T19:32:25.918Z,5.79
2019-03-09T19:35:00.159Z,5.72
2019-03-09T19:37:37.214Z,5.77
2019-03-09T19:40:13.638Z,5.86
2019-03-09T19:42:48.623Z,5.76
2019-03-09T19:45:23.137Z,5.69
2019-03-09T19:47:57.892Z,5.66
2019-03-09T19:50:33.104Z,5.70
2019-03-09T19:53:06.970Z,5.72
2019-03-09T19:55:40.624Z,5.66
2019-03-09T19:58:15.321Z,5.72
2019-03-09T20:00:49.163Z,5.65
2019-03-09T20:03:24.281Z,5.55
2019-03-09T20:06:00.164Z,5.43
2019-03-09T20:08:34.137Z,5.34
2019-03-09T20:11:08.042Z,5.33
2019-03-09T20:13:41.880Z,5.35
2019-03-09T20:16:16.104Z,5.17
2019-03-09T20:18:58.206Z,5.25
2019-03-09T20:21:32.096Z,5.28
2019-03-09T20:24:07.001Z,5.42
2019-03-09T20:26:41.006Z,5.38
2019-03-09T20:29:18.550Z,5.33
2019-03-09T20:31:52.435Z,5.41
2019-03-09T20:34:28.869Z,5.47
2019-03-09T20:37:03.658Z,5.50
2019-03-09T20:39:42.977Z,5.47
2019-03-09T20:42:16.840Z,5.42
2019-03-09T20:44:50.605Z,5.43
2019-03-09T20:47:24.413Z,5.42
2019-03-09T20:49:58.811Z,5.39
2019-03-09T20:52:34.996Z,5.43
2019-03-09T20:55:09.208Z,5.41
2019-03-09T20:57:43.073Z,5.46
2019-03-09T21:00:18.218Z,5.25
2019-03-09T21:02:52.991Z,5.35
2019-03-09T21:05:26.870Z,5.40
2019-03-09T21:08:02.759Z,5.40
2019-03-09T21:10:38.406Z,5.35
2019-03-09T21:13:12.595Z,5.36
2019-03-09T21:15:46.900Z,5.34
2019-03-09T21:18:20.864Z,5.40
2019-03-09T21:20:55.072Z,5.46
2019-03-09T21:23:30.623Z,5.43
2019-03-09T21:26:11.253Z,5.35
2019-03-09T21:28:45.041Z,5.24
2019-03-09T21:31:19.383Z,5.32
2019-03-09T21:33:53.216Z,5.20
2019-03-09T21:36:28.393Z,5.18
2019-03-09T21:39:02.477Z,5.33
2019-03-09T21:41:38.084Z,5.31
2019-03-09T21:44:13.779Z,5.31
2019-03-09T21:46:48.082Z,5.29
2019-03-09T21:49:22.483Z,5.21
2019-03-09T21:51:59.747Z,5.09
2019-03-09T21:54:33.742Z,5.19
2019-03-09T21:57:07.697Z,5.06
2019-03-09T21:59:41.736Z,4.97
2019-03-09T22:02:17.912Z,4.95
2019-03-09T22:04:52.006Z,4.85
2019-03-09T22:07:27.115Z,4.91
2019-03-09T22:10:01.005Z,4.87
2019-03-09T22:12:35.494Z,4.83
2019-03-09T22:15:10.629Z,4.73
2019-03-09T22:17:44.536Z,4.79
2019-03-09T22:20:20.524Z,4.68
2019-03-09T22:22:53.802Z,4.62
2019-03-09T22:25:27.760Z,4.65
2019-03-09T22:28:03.242Z,4.56
2019-03-09T22:30:37.507Z,4.60
2019-03-09T22:33:11.375Z,4.71
2019-03-09T22:35:45.074Z,4.55
2019-03-09T22:38:19.137Z,4.59
2019-03-09T22:40:52.828Z,4.67
2019-03-09T22:43:26.622Z,4.61
2019-03-09T22:46:03.183Z,4.51
2019-03-09T22:48:38.002Z,4.57
2019-03-09T22:51:11.762Z,4.62
2019-03-09T22:53:46.803Z,4.63
2019-03-09T22:56:20.596Z,4.54
2019-03-09T22:58:54.249Z,4.63
2019-03-09T23:01:29.502Z,4.65
2019-03-09T23:04:03.474Z,4.56
2019-03-09T23:06:37.215Z,4.69
2019-03-09T23:09:12.801Z,4.70
2019-03-09T23:11:49.643Z,4.63
2019-03-09T23:14:23.315Z,4.52
2019-03-09T23:16:58.181Z,4.56
2019-03-09T23:19:32.398Z,4.60
2019-03-09T23:22:06.203Z,4.51
2019-03-09T23:24:39.898Z,4.47
2019-03-09T23:27:15.355Z,4.54
2019-03-09T23:29:48.989Z,4.60
2019-03-09T23:32:24.406Z,4.69
2019-03-09T23:34:58.229Z,4.62
2019-03-09T23:37:32.164Z,4.56
2019-03-09T23:40:06.410Z,4.58
2019-03-09T23:42:41.616Z,4.65
2019-03-09T23:45:16.702Z,4.67
2019-03-09T23:47:50.650Z,4.69
2019-03-09T23:50:25.547Z,4.72
2019-03-09T23:52:59.352Z,4.78
2019-03-09T23:55:33.313Z,4.88
2019-03-09T23:58:07.284Z,4.85
